Time;durP1;ratioP1;P1;durP2;ratioP2;P2;SDS_P1;SDS_P2;PMS_P1;PMS_P2;Temp;Humidity;BMP_temperature;BMP_pressure;BME280_temperature;BME280_humidity;BME280_pressure;Samples;Min_cycle;Max_cycle;Signal;HPM_P1;HPM_P2
2021/12/01 00:01:03;;;;;;;1.90;1.50;;;10.80;99.90;;;;;;5054948;28;20206;-61
2021/12/01 00:03:28;;;;;;;3.00;1.63;;;10.80;99.90;;;;;;5037122;28;20597;-61
2021/12/01 00:05:54;;;;;;;1.40;1.30;;;10.80;99.90;;;;;;5054833;28;20265;-61
2021/12/01 00:08:20;;;;;;;1.85;1.58;;;10.70;99.90;;;;;;5055135;28;20186;-61
2021/12/01 00:10:46;;;;;;;1.95;1.58;;;10.60;99.90;;;;;;5054528;28;20201;-61
2021/12/01 00:13:14;;;;;;;1.75;1.40;;;10.70;99.90;;;;;;5054481;28;20167;-61
2021/12/01 00:15:46;;;;;;;2.85;1.65;;;10.70;99.90;;;;;;5054380;28;20187;-61
2021/12/01 00:18:12;;;;;;;2.67;1.63;;;10.60;99.90;;;;;;5054765;28;20203;-61
2021/12/01 00:20:38;;;;;;;1.98;1.70;;;10.60;99.90;;;;;;5054344;28;20587;-61
2021/12/01 00:23:04;;;;;;;1.65;1.55;;;10.70;99.90;;;;;;5054527;28;20214;-61
2021/12/01 00:25:35;;;;;;;2.78;2.08;;;10.60;99.90;;;;;;5054281;28;20229;-61
2021/12/01 00:28:01;;;;;;;2.58;2.38;;;10.70;99.90;;;;;;5054523;28;20162;-61
2021/12/01 00:30:27;;;;;;;2.38;2.17;;;10.70;99.90;;;;;;5054379;28;20174;-61
2021/12/01 00:32:53;;;;;;;2.90;2.60;;;10.60;99.90;;;;;;5053128;28;20183;-61
2021/12/01 00:35:19;;;;;;;2.90;2.70;;;10.60;99.90;;;;;;5053167;28;20645;-61
2021/12/01 00:37:45;;;;;;;4.22;3.40;;;10.60;99.90;;;;;;5054209;28;20180;-61
2021/12/01 00:40:12;;;;;;;3.90;3.60;;;10.60;99.90;;;;;;5053091;28;20186;-61
2021/12/01 00:42:39;;;;;;;4.88;4.30;;;10.60;99.90;;;;;;5052781;28;20178;-61
2021/12/01 00:45:17;;;;;;;5.07;4.50;;;10.60;99.90;;;;;;5052815;28;20194;-67
2021/12/01 00:47:46;;;;;;;5.85;4.78;;;10.60;99.90;;;;;;5053031;28;20248;-61
2021/12/01 00:50:16;;;;;;;5.38;4.90;;;10.60;99.90;;;;;;5052946;28;20169;-61
2021/12/01 00:52:42;;;;;;;5.32;4.93;;;10.60;99.90;;;;;;5054019;28;20182;-61
2021/12/01 00:55:08;;;;;;;5.07;4.68;;;10.50;99.90;;;;;;5054241;28;20625;-61
2021/12/01 00:57:34;;;;;;;5.30;4.90;;;10.50;99.90;;;;;;5053891;28;20184;-61
2021/12/01 01:00:00;;;;;;;6.60;4.97;;;10.50;99.90;;;;;;5053672;28;20549;-61
2021/12/01 01:02:26;;;;;;;5.32;4.93;;;10.50;99.90;;;;;;5053912;28;20186;-61
2021/12/01 01:04:52;;;;;;;5.57;5.18;;;10.50;99.90;;;;;;5053822;28;20532;-61
2021/12/01 01:07:17;;;;;;;6.05;5.50;;;10.50;99.90;;;;;;5052598;28;20175;-62
2021/12/01 01:09:44;;;;;;;6.30;5.80;;;10.40;99.90;;;;;;5052281;28;20171;-62
2021/12/01 01:17:45;;;;;;;7.25;6.47;;;10.40;99.90;;;;;;5053347;28;20259;-62
2021/12/01 01:20:13;;;;;;;6.88;6.32;;;10.30;99.90;;;;;;5053524;28;20278;-61
2021/12/01 01:22:39;;;;;;;6.25;5.70;;;10.30;99.90;;;;;;5053625;28;20520;-61
2021/12/01 01:25:07;;;;;;;6.68;6.18;;;10.30;99.90;;;;;;5051968;28;20270;-63
2021/12/01 01:27:33;;;;;;;6.47;5.90;;;10.30;99.90;;;;;;5052876;28;20175;-61
2021/12/01 01:29:59;;;;;;;5.93;5.53;;;10.20;99.90;;;;;;5053482;28;20263;-61
2021/12/01 01:32:25;;;;;;;5.75;5.35;;;10.20;99.90;;;;;;5053450;28;20576;-61
2021/12/01 01:34:51;;;;;;;5.32;5.00;;;10.20;99.90;;;;;;5053411;28;20175;-61
2021/12/01 01:37:16;;;;;;;5.55;5.15;;;10.20;99.90;;;;;;5053376;28;20183;-61
2021/12/01 01:39:42;;;;;;;5.68;5.03;;;10.20;99.90;;;;;;5053315;28;20214;-61
2021/12/01 01:42:08;;;;;;;5.57;5.07;;;10.20;99.90;;;;;;5052205;28;20639;-61
2021/12/01 01:44:34;;;;;;;5.28;4.88;;;10.20;99.90;;;;;;5053167;28;20702;-61
2021/12/01 01:47:00;;;;;;;5.47;4.97;;;10.10;99.90;;;;;;5053291;28;20202;-61
2021/12/01 01:52:04;;;;;;;4.75;4.35;;;10.10;99.90;;;;;;5037341;28;20521;-61
2021/12/01 01:54:29;;;;;;;4.47;4.18;;;10.10;99.90;;;;;;5052022;28;20175;-63
2021/12/01 01:56:55;;;;;;;4.82;4.43;;;10.20;99.90;;;;;;5052025;28;20233;-61
2021/12/01 01:59:21;;;;;;;4.45;4.10;;;10.20;99.90;;;;;;5051511;28;20219;-61
2021/12/01 02:01:53;;;;;;;4.38;4.05;;;10.20;99.90;;;;;;5052903;28;20195;-61
2021/12/01 02:04:19;;;;;;;4.88;4.25;;;10.20;99.90;;;;;;5052126;28;20175;-62
2021/12/01 02:06:47;;;;;;;4.63;4.28;;;10.20;99.90;;;;;;5051940;28;20172;-61
2021/12/01 02:09:14;;;;;;;4.38;4.00;;;10.20;99.90;;;;;;5053018;28;20269;-61
2021/12/01 02:11:41;;;;;;;4.85;4.32;;;10.20;99.90;;;;;;5053061;28;20172;-61
2021/12/01 02:14:07;;;;;;;5.15;4.32;;;10.20;99.90;;;;;;5051780;28;20182;-61
2021/12/01 02:16:33;;;;;;;4.90;4.50;;;10.10;99.90;;;;;;5053051;28;20270;-61
2021/12/01 02:18:59;;;;;;;5.30;4.72;;;10.10;99.90;;;;;;5051679;28;20298;-61
2021/12/01 02:21:27;;;;;;;5.25;4.75;;;10.10;99.90;;;;;;5053022;28;20608;-61
2021/12/01 02:24:04;;;;;;;5.20;4.80;;;10.10;99.90;;;;;;5052974;28;20176;-67
2021/12/01 02:26:32;;;;;;;5.72;5.22;;;10.10;99.90;;;;;;5053020;28;20163;-61
2021/12/01 02:29:02;;;;;;;5.93;5.43;;;10.00;99.90;;;;;;5051627;28;20528;-61
2021/12/01 02:31:30;;;;;;;6.10;5.50;;;10.10;99.90;;;;;;5052974;28;20205;-61
2021/12/01 02:33:56;;;;;;;6.20;5.70;;;10.10;99.90;;;;;;5052909;28;20308;-61
2021/12/01 02:36:23;;;;;;;6.10;5.40;;;10.00;99.90;;;;;;5053019;28;20203;-61
2021/12/01 02:38:49;;;;;;;5.60;4.95;;;10.00;99.90;;;;;;5056444;28;20234;-61
2021/12/01 02:41:17;;;;;;;4.57;4.18;;;10.00;99.90;;;;;;5056563;28;20636;-61
2021/12/01 02:43:45;;;;;;;5.15;4.75;;;10.00;99.90;;;;;;5055055;28;20186;-61
2021/12/01 02:46:11;;;;;;;4.70;4.30;;;10.00;99.90;;;;;;5056346;28;20235;-61
2021/12/01 02:48:42;;;;;;;4.28;3.85;;;9.90;99.90;;;;;;5056400;28;20726;-61
2021/12/01 02:51:09;;;;;;;3.75;3.47;;;9.90;99.90;;;;;;5056355;28;20167;-61
2021/12/01 02:53:35;;;;;;;4.00;3.60;;;9.80;99.90;;;;;;5056266;28;20644;-61
2021/12/01 02:56:03;;;;;;;3.50;3.25;;;9.90;99.90;;;;;;5054850;28;20178;-61
2021/12/01 02:58:32;;;;;;;4.43;3.35;;;9.90;99.90;;;;;;5055876;28;20211;-63
2021/12/01 03:01:03;;;;;;;3.63;3.42;;;9.70;99.90;;;;;;5056095;28;20180;-61
2021/12/01 03:03:29;;;;;;;4.60;4.07;;;9.70;99.90;;;;;;5054965;28;20167;-61
2021/12/01 03:05:57;;;;;;;4.43;4.03;;;9.80;99.90;;;;;;5056151;28;20632;-61
2021/12/01 03:08:22;;;;;;;4.75;4.25;;;9.70;99.90;;;;;;5055155;28;20183;-61
2021/12/01 03:10:53;;;;;;;5.20;4.80;;;9.70;99.90;;;;;;5055666;28;20544;-61
2021/12/01 03:13:21;;;;;;;6.18;4.80;;;9.80;99.90;;;;;;5055932;28;20169;-61
2021/12/01 03:15:47;;;;;;;5.15;4.35;;;9.80;99.90;;;;;;5055733;28;20274;-61
2021/12/01 03:18:14;;;;;;;4.82;4.18;;;9.70;99.90;;;;;;5054609;28;20207;-61
2021/12/01 03:20:40;;;;;;;4.68;4.28;;;9.70;99.90;;;;;;5055719;28;20176;-61
2021/12/01 03:23:06;;;;;;;6.15;4.50;;;9.60;99.90;;;;;;5054433;28;20762;-61
2021/12/01 03:25:33;;;;;;;5.07;4.60;;;9.60;99.90;;;;;;5054422;28;20175;-61
2021/12/01 03:27:59;;;;;;;4.90;4.50;;;9.60;99.90;;;;;;5055680;28;20182;-61
2021/12/01 03:30:25;;;;;;;4.75;4.35;;;9.70;99.90;;;;;;5055627;28;20714;-61
2021/12/01 03:32:51;;;;;;;8.38;4.95;;;9.60;99.90;;;;;;5037997;28;20315;-61
2021/12/01 03:35:17;;;;;;;4.82;4.40;;;9.60;99.90;;;;;;5055530;28;20175;-61
2021/12/01 03:37:45;;;;;;;5.20;4.63;;;9.60;99.90;;;;;;5055150;28;20536;-62
2021/12/01 03:40:12;;;;;;;4.93;4.53;;;9.60;99.90;;;;;;5055134;28;20640;-61
2021/12/01 03:42:38;;;;;;;5.22;4.72;;;9.60;99.90;;;;;;5053692;28;20186;-61
2021/12/01 03:45:06;;;;;;;4.75;4.32;;;9.60;99.90;;;;;;5055310;28;20171;-61
2021/12/01 03:47:31;;;;;;;4.63;4.22;;;9.60;99.90;;;;;;5055017;28;20180;-61
2021/12/01 03:49:58;;;;;;;4.10;3.80;;;9.60;99.90;;;;;;5053353;28;20687;-62
2021/12/01 03:52:24;;;;;;;4.30;3.90;;;9.50;99.90;;;;;;5055148;28;20203;-61
2021/12/01 03:54:51;;;;;;;5.60;3.60;;;9.50;99.90;;;;;;5055281;28;20233;-61
2021/12/01 03:57:16;;;;;;;4.53;3.97;;;9.50;99.90;;;;;;5055118;28;20259;-61
2021/12/01 03:59:43;;;;;;;3.80;3.50;;;9.50;99.90;;;;;;5054962;28;20306;-62
2021/12/01 04:02:08;;;;;;;4.57;3.58;;;9.50;99.90;;;;;;5054936;28;20202;-61
2021/12/01 04:04:34;;;;;;;4.75;3.70;;;9.60;99.90;;;;;;5054954;28;20171;-61
2021/12/01 04:07:01;;;;;;;4.00;3.70;;;9.50;99.90;;;;;;5054958;28;20167;-61
2021/12/01 04:09:27;;;;;;;5.18;3.58;;;9.40;99.90;;;;;;5053572;28;20197;-61
2021/12/01 04:11:53;;;;;;;4.00;3.70;;;9.40;99.90;;;;;;5054819;28;20255;-62
2021/12/01 04:14:19;;;;;;;5.00;3.55;;;9.40;99.90;;;;;;5036895;28;20262;-61
2021/12/01 04:16:45;;;;;;;4.10;3.60;;;9.40;99.90;;;;;;5053433;28;20187;-61
2021/12/01 04:19:11;;;;;;;5.93;3.80;;;9.40;99.90;;;;;;5054348;28;20217;-61
2021/12/01 04:21:38;;;;;;;4.25;3.85;;;9.40;99.90;;;;;;5054657;28;20273;-61
2021/12/01 04:24:04;;;;;;;5.28;4.78;;;9.30;99.90;;;;;;5054357;28;20187;-61
2021/12/01 04:26:32;;;;;;;5.18;4.75;;;9.30;99.90;;;;;;5054253;28;20203;-61
2021/12/01 04:28:58;;;;;;;5.45;4.80;;;9.40;99.90;;;;;;5053381;28;20194;-61
2021/12/01 04:31:26;;;;;;;7.30;5.45;;;9.40;99.90;;;;;;5054719;28;20179;-61
2021/12/01 04:33:51;;;;;;;5.10;4.57;;;9.40;99.90;;;;;;5054354;28;20184;-61
2021/12/01 04:36:18;;;;;;;4.90;4.60;;;9.40;99.90;;;;;;5053170;28;20238;-64
2021/12/01 04:38:44;;;;;;;5.28;4.78;;;9.40;99.90;;;;;;5053039;28;20294;-61
2021/12/01 04:41:13;;;;;;;4.80;4.40;;;9.30;99.90;;;;;;5054207;28;20625;-61
2021/12/01 04:43:39;;;;;;;4.05;3.75;;;9.30;99.90;;;;;;5054164;28;20179;-61
2021/12/01 04:46:05;;;;;;;4.45;4.15;;;9.40;99.90;;;;;;5054260;28;20176;-61
2021/12/01 04:48:32;;;;;;;4.35;3.85;;;9.40;99.90;;;;;;5054220;28;20183;-61
2021/12/01 04:50:59;;;;;;;4.28;3.97;;;9.40;99.90;;;;;;5052803;28;20179;-61
2021/12/01 04:53:26;;;;;;;4.07;3.78;;;9.40;99.90;;;;;;5053787;28;20536;-61
2021/12/01 04:55:53;;;;;;;4.03;3.72;;;9.40;99.90;;;;;;5053973;28;20601;-61
2021/12/01 04:58:20;;;;;;;4.25;3.80;;;9.40;99.90;;;;;;5054214;28;20544;-61
2021/12/01 05:00:46;;;;;;;4.20;3.65;;;9.30;99.90;;;;;;5053015;28;20627;-61
2021/12/01 05:03:11;;;;;;;3.38;3.08;;;9.30;99.90;;;;;;5053888;28;20284;-61
2021/12/01 05:05:37;;;;;;;3.60;3.30;;;9.30;99.90;;;;;;5054137;28;20175;-61
2021/12/01 05:08:03;;;;;;;3.22;2.92;;;9.30;99.90;;;;;;5053855;28;20187;-61
2021/12/01 05:10:29;;;;;;;2.70;2.50;;;9.30;99.90;;;;;;5052430;28;20179;-63
2021/12/01 05:12:55;;;;;;;2.92;2.45;;;9.30;99.90;;;;;;5053525;28;20628;-61
2021/12/01 05:15:21;;;;;;;3.33;2.40;;;9.30;99.90;;;;;;5053421;28;20190;-61
2021/12/01 05:17:47;;;;;;;2.53;2.33;;;9.30;99.90;;;;;;5052554;28;20165;-61
2021/12/01 05:20:13;;;;;;;2.72;2.38;;;9.30;99.90;;;;;;5053616;28;20179;-61
2021/12/01 05:22:39;;;;;;;2.80;2.35;;;9.40;99.90;;;;;;5053242;28;20175;-61
2021/12/01 05:25:06;;;;;;;2.90;2.70;;;9.40;99.90;;;;;;5052113;28;20175;-64
2021/12/01 05:27:32;;;;;;;3.20;2.90;;;9.40;99.90;;;;;;5053773;28;20175;-61
2021/12/01 05:29:58;;;;;;;3.17;2.80;;;9.30;99.90;;;;;;5053511;28;20199;-61
2021/12/01 05:32:24;;;;;;;3.28;3.00;;;9.40;99.90;;;;;;5053436;28;20180;-61
2021/12/01 05:34:49;;;;;;;3.25;2.85;;;9.40;99.90;;;;;;5053459;28;20186;-61
2021/12/01 05:37:15;;;;;;;3.33;3.03;;;9.40;99.90;;;;;;5051853;28;20183;-61
2021/12/01 05:39:44;;;;;;;3.35;3.15;;;9.40;99.90;;;;;;5053202;28;20298;-69
2021/12/01 05:42:12;;;;;;;3.55;3.25;;;9.40;99.90;;;;;;5052052;28;20180;-61
2021/12/01 05:44:39;;;;;;;3.63;3.33;;;9.50;99.90;;;;;;5053224;28;20629;-61
2021/12/01 05:47:05;;;;;;;3.70;3.40;;;9.40;99.90;;;;;;5053372;28;20186;-61
2021/12/01 05:49:32;;;;;;;3.88;3.20;;;9.40;99.90;;;;;;5053022;28;20171;-61
2021/12/01 05:51:58;;;;;;;4.28;3.88;;;9.50;99.90;;;;;;5053280;28;20250;-61
2021/12/01 05:54:24;;;;;;;4.32;4.03;;;9.40;99.90;;;;;;5053233;28;20171;-61
2021/12/01 05:56:50;;;;;;;4.28;3.13;;;9.40;99.90;;;;;;5053516;28;20175;-61
2021/12/01 05:59:15;;;;;;;3.47;3.17;;;9.40;99.90;;;;;;5035333;28;20211;-61
2021/12/01 06:01:41;;;;;;;3.85;3.55;;;9.50;99.90;;;;;;5051990;28;20175;-61
2021/12/01 06:04:07;;;;;;;5.82;4.13;;;9.50;99.90;;;;;;5035330;28;20183;-63
2021/12/01 06:06:32;;;;;;;4.38;3.55;;;9.50;99.90;;;;;;5035431;28;20679;-62
2021/12/01 06:08:58;;;;;;;4.03;3.72;;;9.60;99.90;;;;;;5051985;28;20185;-62
2021/12/01 06:11:24;;;;;;;4.00;3.70;;;9.60;99.90;;;;;;5051852;28;20187;-62
2021/12/01 06:13:52;;;;;;;4.32;3.50;;;9.60;99.90;;;;;;5055450;28;20174;-61
2021/12/01 06:16:22;;;;;;;4.15;3.75;;;9.60;99.90;;;;;;5057023;28;20289;-62
2021/12/01 06:18:49;;;;;;;4.95;3.75;;;9.50;99.90;;;;;;5056866;28;20203;-61
2021/12/01 06:21:15;;;;;;;4.15;3.85;;;9.60;99.90;;;;;;5056924;28;20267;-62
2021/12/01 06:23:41;;;;;;;4.20;3.80;;;9.60;99.90;;;;;;5056862;28;20273;-62
2021/12/01 06:26:07;;;;;;;3.92;3.50;;;9.60;99.90;;;;;;5053805;28;20579;-62
2021/12/01 06:28:32;;;;;;;3.75;3.45;;;9.60;99.90;;;;;;5056611;28;20207;-62
2021/12/01 06:30:58;;;;;;;4.10;3.70;;;9.60;99.90;;;;;;5056671;28;20179;-62
2021/12/01 06:33:24;;;;;;;3.47;3.28;;;9.60;99.90;;;;;;5056584;28;20187;-62
2021/12/01 06:35:51;;;;;;;3.75;3.45;;;9.60;99.90;;;;;;5055144;28;20545;-61
2021/12/01 06:38:19;;;;;;;5.35;3.80;;;9.50;99.90;;;;;;5056308;28;20195;-61
2021/12/01 06:40:45;;;;;;;3.80;3.50;;;9.60;99.90;;;;;;5055031;28;20172;-62
2021/12/01 06:43:11;;;;;;;3.78;3.35;;;9.60;99.90;;;;;;5055369;28;20187;-62
2021/12/01 06:45:37;;;;;;;4.07;3.63;;;9.60;99.90;;;;;;5054895;28;20175;-62
2021/12/01 06:48:03;;;;;;;4.35;3.70;;;9.60;99.90;;;;;;5055986;28;20171;-62
2021/12/01 06:50:29;;;;;;;4.13;3.83;;;9.60;99.90;;;;;;5056153;28;20172;-62
2021/12/01 06:52:55;;;;;;;4.10;3.80;;;9.70;99.90;;;;;;5055769;28;20183;-62
2021/12/01 06:55:21;;;;;;;4.15;3.65;;;9.60;99.90;;;;;;5054707;28;20181;-62
2021/12/01 06:57:47;;;;;;;3.90;3.70;;;9.60;99.90;;;;;;5055829;28;20633;-63
2021/12/01 07:00:15;;;;;;;4.00;3.30;;;9.60;99.90;;;;;;5054483;28;20596;-62
2021/12/01 07:02:41;;;;;;;3.20;3.00;;;9.60;99.90;;;;;;5055897;28;20509;-62
2021/12/01 07:05:08;;;;;;;3.13;2.83;;;9.70;99.90;;;;;;5054642;28;20171;-62
2021/12/01 07:07:34;;;;;;;2.75;2.55;;;9.70;99.90;;;;;;5054428;28;20331;-61
2021/12/01 07:10:00;;;;;;;2.90;2.70;;;9.70;99.90;;;;;;5055344;28;20207;-62
2021/12/01 07:12:26;;;;;;;3.17;2.67;;;9.80;99.90;;;;;;5055392;28;20168;-61
2021/12/01 07:14:52;;;;;;;2.45;2.28;;;9.70;99.90;;;;;;5037847;28;20286;-62
2021/12/01 07:17:19;;;;;;;2.03;1.77;;;9.70;99.90;;;;;;5055869;28;20190;-62
2021/12/01 07:19:45;;;;;;;2.47;1.67;;;9.70;99.90;;;;;;5055413;28;20234;-62
2021/12/01 07:22:12;;;;;;;1.60;1.50;;;9.70;99.90;;;;;;5054008;28;20649;-62
2021/12/01 07:24:38;;;;;;;1.73;1.55;;;9.70;99.90;;;;;;5054482;28;20180;-62
2021/12/01 07:27:04;;;;;;;1.83;1.50;;;9.60;99.90;;;;;;5054016;28;20190;-62
2021/12/01 07:29:30;;;;;;;2.22;1.40;;;9.70;99.90;;;;;;5055242;28;20176;-62
2021/12/01 07:31:56;;;;;;;2.03;1.38;;;9.70;99.90;;;;;;5055203;28;20183;-63
2021/12/01 07:34:21;;;;;;;2.00;1.35;;;9.80;99.90;;;;;;5055345;28;20172;-62
2021/12/01 07:36:48;;;;;;;1.40;1.30;;;9.80;99.90;;;;;;5053951;28;20176;-62
2021/12/01 07:39:13;;;;;;;1.60;1.40;;;9.80;99.90;;;;;;5055165;28;20229;-62
2021/12/01 07:41:39;;;;;;;2.55;1.10;;;9.80;99.90;;;;;;5055083;28;20621;-62
2021/12/01 07:44:05;;;;;;;1.65;1.10;;;9.80;99.90;;;;;;5053628;28;20168;-62
2021/12/01 07:46:31;;;;;;;2.50;1.10;;;9.80;99.90;;;;;;5055228;28;20187;-62
2021/12/01 07:48:57;;;;;;;2.05;1.17;;;9.80;99.90;;;;;;5054801;28;20258;-62
2021/12/01 07:51:22;;;;;;;2.13;1.10;;;9.80;99.90;;;;;;5055063;28;20613;-62
2021/12/01 07:53:49;;;;;;;1.92;1.10;;;9.80;99.90;;;;;;5053633;28;20175;-63
2021/12/01 07:56:15;;;;;;;2.53;1.10;;;9.90;99.90;;;;;;5054901;28;20194;-62
2021/12/01 07:58:41;;;;;;;1.10;1.00;;;9.80;99.90;;;;;;5054488;28;20207;-62
2021/12/01 08:01:06;;;;;;;1.00;1.00;;;9.80;99.90;;;;;;5053440;28;20179;-62
2021/12/01 08:03:32;;;;;;;1.17;0.98;;;9.80;99.90;;;;;;5054682;28;20229;-64
2021/12/01 08:05:57;;;;;;;1.67;1.20;;;9.80;99.90;;;;;;5054451;28;20175;-62
2021/12/01 08:08:23;;;;;;;1.23;1.08;;;9.80;99.90;;;;;;5054197;28;20536;-62
2021/12/01 08:10:49;;;;;;;0.95;0.95;;;9.90;99.90;;;;;;5053579;28;20175;-62
2021/12/01 08:13:15;;;;;;;2.05;1.00;;;10.00;99.90;;;;;;5053433;28;20682;-62
2021/12/01 08:15:41;;;;;;;4.00;1.10;;;10.00;99.90;;;;;;5053127;28;20272;-62
2021/12/01 08:18:07;;;;;;;1.50;1.10;;;10.00;99.90;;;;;;5052734;28;20190;-62
2021/12/01 08:20:33;;;;;;;1.15;0.93;;;10.10;99.90;;;;;;5054182;28;20633;-62
2021/12/01 08:22:59;;;;;;;1.00;0.88;;;10.00;99.90;;;;;;5054437;28;20198;-62
2021/12/01 08:25:25;;;;;;;1.60;0.80;;;9.90;99.90;;;;;;5054378;28;20174;-63
2021/12/01 08:27:51;;;;;;;1.50;0.80;;;9.90;99.90;;;;;;5054197;28;20576;-62
2021/12/01 08:30:17;;;;;;;1.10;1.00;;;9.90;99.90;;;;;;5054302;28;20175;-62
2021/12/01 08:32:45;;;;;;;1.55;0.90;;;10.00;99.90;;;;;;5054272;28;20207;-62
2021/12/01 08:35:13;;;;;;;1.17;0.90;;;10.00;99.90;;;;;;5054013;28;20617;-62
2021/12/01 08:37:39;;;;;;;0.98;0.93;;;10.10;99.90;;;;;;5054043;28;20225;-63
2021/12/01 08:40:06;;;;;;;1.08;0.98;;;10.00;99.90;;;;;;5052742;28;20207;-62
2021/12/01 08:42:33;;;;;;;1.88;1.60;;;9.90;99.90;;;;;;5054017;28;20210;-62
2021/12/01 08:44:59;;;;;;;1.38;1.27;;;10.00;99.90;;;;;;5053587;28;20175;-62
2021/12/01 08:47:25;;;;;;;3.13;1.60;;;10.00;99.90;;;;;;5052622;28;20183;-63
2021/12/01 08:49:52;;;;;;;2.33;1.60;;;10.00;99.90;;;;;;5053440;28;20191;-62
2021/12/01 08:52:18;;;;;;;1.70;1.52;;;10.10;99.90;;;;;;5053769;28;20172;-62
2021/12/01 08:54:44;;;;;;;2.70;1.55;;;10.00;99.90;;;;;;5052377;28;20172;-63
2021/12/01 08:57:10;;;;;;;2.15;1.75;;;10.10;99.90;;;;;;5052549;28;20690;-62
2021/12/01 08:59:36;;;;;;;2.03;1.60;;;10.10;99.90;;;;;;5053355;28;20203;-62
2021/12/01 09:02:03;;;;;;;1.65;1.55;;;10.10;99.90;;;;;;5053975;28;20176;-62
2021/12/01 09:04:28;;;;;;;4.65;2.00;;;10.10;99.90;;;;;;5053392;28;20241;-62
2021/12/01 09:06:55;;;;;;;4.00;2.30;;;10.10;99.90;;;;;;5052398;28;20637;-62
2021/12/01 09:09:21;;;;;;;3.63;1.90;;;10.20;99.90;;;;;;5053562;28;20172;-62
2021/12/01 09:11:48;;;;;;;2.70;1.88;;;10.20;99.90;;;;;;5053468;28;20631;-62
2021/12/01 09:14:14;;;;;;;5.78;1.90;;;10.30;99.90;;;;;;5052960;28;20184;-62
2021/12/01 09:16:42;;;;;;;4.40;1.90;;;10.30;99.90;;;;;;5052956;28;20671;-62
2021/12/01 09:19:08;;;;;;;4.43;2.00;;;10.40;99.90;;;;;;5052044;28;20615;-62
2021/12/01 09:21:34;;;;;;;4.45;2.00;;;10.40;99.90;;;;;;5052086;28;20632;-62
2021/12/01 09:24:00;;;;;;;5.25;2.00;;;10.40;99.90;;;;;;5052250;28;20254;-62
2021/12/01 09:26:26;;;;;;;5.78;1.90;;;10.50;99.90;;;;;;5052178;28;20185;-62
2021/12/01 09:28:51;;;;;;;4.50;1.90;;;10.50;99.90;;;;;;5052963;28;20175;-62
2021/12/01 09:31:17;;;;;;;7.63;2.80;;;10.60;99.90;;;;;;5053367;28;20258;-62
2021/12/01 09:33:43;;;;;;;8.68;3.05;;;10.70;99.90;;;;;;5052874;28;20581;-62
2021/12/01 09:36:09;;;;;;;10.40;3.75;;;10.70;99.90;;;;;;5052942;28;20266;-62
2021/12/01 09:38:35;;;;;;;10.05;4.35;;;10.70;99.90;;;;;;5051902;28;20285;-62
2021/12/01 09:41:01;;;;;;;12.65;4.88;;;10.70;99.90;;;;;;5053117;28;20625;-62
2021/12/01 09:43:31;;;;;;;13.68;5.95;;;10.70;99.90;;;;;;5052878;28;20172;-62
2021/12/01 09:45:59;;;;;;;20.73;6.82;;;10.80;99.90;;;;;;5051792;28;20179;-62
2021/12/01 09:48:26;;;;;;;14.63;6.63;;;10.80;99.90;;;;;;5059223;28;20240;-62
2021/12/01 09:50:52;;;;;;;17.88;5.78;;;10.80;99.90;;;;;;5058394;28;20163;-62
2021/12/01 09:53:18;;;;;;;14.02;5.40;;;10.90;99.90;;;;;;5059773;28;20167;-63
2021/12/01 09:55:44;;;;;;;10.85;4.40;;;10.90;99.90;;;;;;5059160;28;20711;-63
2021/12/01 09:58:16;;;;;;;6.82;2.85;;;10.80;99.90;;;;;;5059589;28;20320;-62
2021/12/01 10:00:45;;;;;;;10.70;3.83;;;10.80;99.90;;;;;;5058538;28;20642;-62
2021/12/01 10:03:11;;;;;;;7.30;2.50;;;10.80;99.90;;;;;;5059392;28;20174;-62
2021/12/01 10:06:17;;;;;;;5.70;2.08;;;10.80;99.90;;;;;;5058088;28;20199;-62
2021/12/01 10:09:10;;;;;;;6.13;1.75;;;10.70;99.90;;;;;;5058711;28;20640;-62
2021/12/01 10:11:41;;;;;;;6.43;1.85;;;10.70;99.90;;;;;;5058531;28;20179;-62
2021/12/01 10:14:15;;;;;;;5.57;2.08;;;10.60;99.90;;;;;;5059614;28;20199;-62
2021/12/01 10:16:43;;;;;;;3.58;1.48;;;10.40;99.90;;;;;;5059443;28;20539;-62
2021/12/01 10:19:11;;;;;;;4.38;1.67;;;10.40;99.90;;;;;;5059325;28;20562;-62
2021/12/01 10:21:42;;;;;;;6.10;1.90;;;10.30;99.90;;;;;;5059424;28;20167;-62
2021/12/01 10:24:11;;;;;;;5.50;1.70;;;10.30;99.90;;;;;;5059520;28;20621;-62
2021/12/01 10:26:46;;;;;;;10.43;2.13;;;10.20;99.90;;;;;;5059436;28;20252;-62
2021/12/01 10:29:15;;;;;;;4.15;1.83;;;10.10;99.90;;;;;;5059466;28;20171;-62
2021/12/01 10:31:41;;;;;;;5.63;1.50;;;10.10;99.90;;;;;;5059285;28;20551;-62
2021/12/01 10:34:40;;;;;;;4.63;1.48;;;10.20;99.90;;;;;;5058101;28;20258;-61
2021/12/01 10:37:26;;;;;;;4.40;1.50;;;10.30;99.90;;;;;;5058064;28;20189;-62
2021/12/01 10:40:11;;;;;;;3.35;1.50;;;10.30;99.90;;;;;;5058960;28;20545;-61
2021/12/01 10:42:55;;;;;;;5.32;1.27;;;10.30;99.90;;;;;;5059080;28;20155;-62
2021/12/01 10:45:23;;;;;;;5.43;1.20;;;10.30;99.90;;;;;;5059104;28;20222;-61
2021/12/01 10:47:49;;;;;;;3.72;1.10;;;10.20;99.90;;;;;;5059514;28;20201;-65
2021/12/01 10:50:18;;;;;;;5.95;1.33;;;10.20;99.90;;;;;;5058918;28;20635;-62
2021/12/01 10:52:49;;;;;;;4.88;1.17;;;10.20;99.90;;;;;;5059254;28;20178;-62
2021/12/01 10:55:24;;;;;;;4.35;1.20;;;10.20;99.90;;;;;;5059172;28;20649;-61
2021/12/01 10:58:00;;;;;;;4.65;1.30;;;10.20;99.90;;;;;;5058234;28;20175;-62
2021/12/01 11:00:41;;;;;;;5.13;1.77;;;10.20;99.90;;;;;;5055963;28;20187;-62
2021/12/01 11:03:13;;;;;;;4.22;1.13;;;10.30;99.90;;;;;;5056007;28;20168;-61
2021/12/01 11:05:47;;;;;;;3.92;1.33;;;10.20;99.90;;;;;;5055665;28;20513;-62
2021/12/01 11:08:22;;;;;;;5.32;1.30;;;10.20;99.90;;;;;;5055817;28;20159;-61
2021/12/01 11:10:52;;;;;;;5.50;1.25;;;10.20;99.90;;;;;;5055828;28;20182;-61
2021/12/01 11:13:19;;;;;;;3.30;1.20;;;10.10;99.90;;;;;;5055794;28;20592;-61
2021/12/01 11:15:50;;;;;;;4.22;1.50;;;10.10;99.90;;;;;;5054025;28;20199;-63
2021/12/01 11:18:38;;;;;;;2.28;1.08;;;10.20;99.90;;;;;;5055398;28;20155;-62
2021/12/01 11:21:10;;;;;;;3.97;1.38;;;10.20;99.90;;;;;;5055030;28;20533;-61
2021/12/01 11:23:42;;;;;;;2.83;1.05;;;10.20;99.90;;;;;;5055135;28;20213;-62
2021/12/01 11:26:13;;;;;;;3.15;1.00;;;10.20;99.90;;;;;;5055556;28;20160;-62
2021/12/01 11:28:43;;;;;;;5.32;1.35;;;10.30;99.90;;;;;;5055671;28;20168;-61
2021/12/01 11:31:18;;;;;;;4.70;1.33;;;10.40;99.90;;;;;;5055556;28;20179;-61
2021/12/01 11:33:44;;;;;;;3.78;1.30;;;10.40;99.90;;;;;;5055661;28;20490;-62
2021/12/01 11:36:18;;;;;;;3.97;1.67;;;10.50;99.90;;;;;;5054096;28;20640;-62
2021/12/01 11:38:52;;;;;;;6.43;2.08;;;10.50;99.90;;;;;;5055360;28;20213;-62
2021/12/01 11:41:18;;;;;;;6.68;2.30;;;10.50;99.90;;;;;;5055055;28;20683;-62
2021/12/01 11:43:45;;;;;;;14.60;6.05;;;10.40;99.90;;;;;;5053902;28;20175;-61
2021/12/01 11:46:11;;;;;;;28.10;10.63;;;10.40;99.90;;;;;;5054753;28;20588;-62
2021/12/01 11:48:48;;;;;;;27.27;11.93;;;10.30;99.90;;;;;;5055197;28;20168;-65
2021/12/01 11:51:15;;;;;;;31.20;12.77;;;10.30;99.90;;;;;;5055184;28;20247;-62
2021/12/01 11:53:51;;;;;;;17.83;7.45;;;10.40;99.90;;;;;;5053690;28;20225;-62
2021/12/01 11:56:17;;;;;;;13.80;5.75;;;10.40;99.90;;;;;;5055011;28;20238;-61
2021/12/01 11:58:48;;;;;;;9.32;3.72;;;10.30;99.90;;;;;;5054843;28;20295;-61
2021/12/01 12:01:20;;;;;;;9.93;3.67;;;10.30;99.90;;;;;;5054692;28;20639;-61
2021/12/01 12:04:06;;;;;;;6.88;3.42;;;10.30;99.90;;;;;;5054287;28;20569;-61
2021/12/01 12:06:43;;;;;;;7.90;3.22;;;10.30;99.90;;;;;;5019053;28;20572;-61
2021/12/01 12:09:14;;;;;;;10.13;3.38;;;10.30;99.90;;;;;;5054316;28;20163;-61
2021/12/01 12:11:45;;;;;;;6.20;2.67;;;10.20;99.90;;;;;;5053387;28;20183;-61
2021/12/01 12:14:17;;;;;;;8.05;2.88;;;10.20;99.90;;;;;;5054251;28;20247;-61
2021/12/01 12:17:02;;;;;;;5.88;2.60;;;10.30;99.90;;;;;;5054663;28;20628;-61
2021/12/01 12:19:46;;;;;;;12.60;4.63;;;10.40;99.90;;;;;;5054515;28;20203;-63
2021/12/01 12:22:43;;;;;;;7.70;2.97;;;10.50;99.90;;;;;;5054299;28;20202;-61
2021/12/01 12:25:29;;;;;;;9.77;3.65;;;10.50;99.90;;;;;;5051926;28;20233;-61
2021/12/01 12:27:55;;;;;;;13.02;5.30;;;10.50;99.90;;;;;;5054476;28;20168;-61
2021/12/01 12:30:30;;;;;;;18.15;7.25;;;10.50;99.90;;;;;;5054232;28;20181;-61
2021/12/01 12:33:17;;;;;;;15.38;7.68;;;10.50;99.90;;;;;;5054038;28;20185;-61
2021/12/01 12:35:46;;;;;;;21.48;9.00;;;10.60;99.90;;;;;;5052855;28;20178;-61
2021/12/01 12:38:12;;;;;;;21.83;8.82;;;10.60;99.90;;;;;;5053878;28;20175;-61
2021/12/01 12:40:39;;;;;;;21.45;9.27;;;10.50;99.90;;;;;;5054096;28;20172;-61
2021/12/01 12:43:06;;;;;;;16.25;6.38;;;10.50;99.90;;;;;;5054301;28;20254;-61
2021/12/01 12:45:31;;;;;;;11.88;4.28;;;10.40;99.90;;;;;;5053976;28;20234;-61
2021/12/01 12:47:57;;;;;;;9.35;3.28;;;10.40;99.90;;;;;;5052831;28;20183;-61
2021/12/01 12:50:24;;;;;;;6.53;2.00;;;10.40;99.90;;;;;;5053863;28;20175;-61
2021/12/01 12:53:03;;;;;;;7.03;2.10;;;10.40;99.90;;;;;;5054075;28;20187;-61
2021/12/01 12:55:29;;;;;;;6.80;2.70;;;10.30;99.90;;;;;;5054062;28;20621;-61
2021/12/01 12:58:14;;;;;;;4.90;1.98;;;10.30;99.90;;;;;;5053565;28;20167;-64
2021/12/01 13:00:50;;;;;;;5.22;2.05;;;10.30;99.90;;;;;;5053464;28;20179;-61
2021/12/01 13:03:24;;;;;;;8.15;2.35;;;10.30;99.90;;;;;;5053711;28;20179;-61